Time;durP1;ratioP1;P1;durP2;ratioP2;P2;SDS_P1;SDS_P2;PMS_P1;PMS_P2;Temp;Humidity;BMP_temperature;BMP_pressure;BME280_temperature;BME280_humidity;BME280_pressure;Samples;Min_cycle;Max_cycle;Signal;HPM_P1;HPM_P2
2022/06/12 00:02:17;;;;;;;10.38;2.67;;;13.10;99.90;;;;;;5012347;28;20037;-77
2022/06/12 00:04:43;;;;;;;11.18;2.85;;;13.10;99.90;;;;;;5012535;28;20041;-76
2022/06/12 00:07:08;;;;;;;9.73;3.08;;;13.00;99.90;;;;;;4996064;28;20073;-77
2022/06/12 00:09:34;;;;;;;8.30;2.63;;;13.00;99.90;;;;;;5012065;28;20042;-77
2022/06/12 00:12:00;;;;;;;9.85;2.42;;;12.90;99.90;;;;;;5012316;28;20117;-77
2022/06/12 00:14:26;;;;;;;9.57;2.70;;;12.90;99.90;;;;;;5012262;28;20767;-76
2022/06/12 00:16:52;;;;;;;7.18;2.95;;;12.80;99.90;;;;;;5013722;28;20045;-77
2022/06/12 00:19:18;;;;;;;8.90;2.95;;;12.90;99.90;;;;;;4996014;28;20041;-76
2022/06/12 00:21:44;;;;;;;9.27;2.30;;;12.90;99.90;;;;;;5012064;28;20048;-77
2022/06/12 00:24:14;;;;;;;7.22;2.00;;;12.90;99.90;;;;;;5012249;28;20477;-76
2022/06/12 00:26:52;;;;;;;9.30;3.28;;;12.90;99.90;;;;;;5012000;28;20042;-75
2022/06/12 00:29:22;;;;;;;10.95;2.70;;;12.90;99.90;;;;;;5012048;28;20042;-77
2022/06/12 00:31:51;;;;;;;12.63;2.70;;;12.90;99.90;;;;;;5012058;28;20490;-77
2022/06/12 00:34:20;;;;;;;5.00;2.40;;;13.00;99.90;;;;;;4995481;28;20041;-77
2022/06/12 00:36:45;;;;;;;10.10;2.42;;;13.00;99.90;;;;;;4995530;28;20034;-77
2022/06/12 00:39:12;;;;;;;5.93;2.15;;;12.90;99.90;;;;;;5011695;28;20382;-77
2022/06/12 00:41:39;;;;;;;6.78;2.30;;;12.90;99.90;;;;;;5011584;28;20070;-76
2022/06/12 00:44:06;;;;;;;11.35;2.78;;;12.90;99.90;;;;;;5012977;28;20083;-77
2022/06/12 00:46:39;;;;;;;6.80;2.47;;;12.90;99.90;;;;;;4995250;28;20078;-76
2022/06/12 00:49:19;;;;;;;5.88;2.17;;;12.90;99.90;;;;;;5012765;28;20034;-77
2022/06/12 00:51:48;;;;;;;7.43;2.55;;;12.80;99.90;;;;;;5012688;28;20038;-76
2022/06/12 00:54:14;;;;;;;11.00;3.33;;;12.80;99.90;;;;;;5012781;28;20386;-77
2022/06/12 00:56:47;;;;;;;8.35;2.28;;;12.70;99.90;;;;;;5011595;28;20095;-77
2022/06/12 00:59:42;;;;;;;9.32;2.58;;;12.60;99.90;;;;;;5011439;28;20042;-77
2022/06/12 01:02:13;;;;;;;11.45;3.63;;;12.60;99.90;;;;;;4996893;28;20053;-77
2022/06/12 01:07:28;;;;;;;10.52;2.47;;;12.60;99.90;;;;;;5012823;28;20076;-76
2022/06/12 01:09:59;;;;;;;12.13;2.85;;;12.60;99.90;;;;;;5012372;28;20121;-77
2022/06/12 01:12:30;;;;;;;11.20;2.30;;;12.50;99.90;;;;;;5012753;28;20117;-76
2022/06/12 01:15:01;;;;;;;8.80;2.53;;;12.50;99.90;;;;;;5012919;28;20074;-77
2022/06/12 01:17:28;;;;;;;6.93;2.90;;;12.50;99.90;;;;;;5012527;28;20084;-77
2022/06/12 01:19:59;;;;;;;8.05;2.53;;;12.50;99.90;;;;;;5012085;28;20046;-77
2022/06/12 01:23:02;;;;;;;8.10;2.50;;;12.40;99.90;;;;;;5011334;28;20061;-77
2022/06/12 01:25:33;;;;;;;7.90;2.92;;;12.40;99.90;;;;;;5011662;28;20046;-77
2022/06/12 01:28:27;;;;;;;6.65;2.53;;;12.30;99.90;;;;;;5027379;28;20060;-76
2022/06/12 01:31:19;;;;;;;8.20;3.13;;;12.20;99.90;;;;;;5012025;28;20042;-77
2022/06/12 01:33:51;;;;;;;6.10;2.35;;;12.20;99.90;;;;;;5012190;28;20034;-76
2022/06/12 01:36:27;;;;;;;8.38;3.00;;;12.30;99.90;;;;;;5012254;28;20033;-77
2022/06/12 01:39:28;;;;;;;7.63;2.25;;;12.20;99.90;;;;;;5010636;28;20041;-77
2022/06/12 01:42:03;;;;;;;4.93;3.42;;;12.20;99.90;;;;;;5013967;28;20061;-76
2022/06/12 01:44:49;;;;;;;8.40;2.42;;;12.20;99.90;;;;;;5027067;28;20044;-77
2022/06/12 01:47:31;;;;;;;5.53;2.05;;;12.20;99.90;;;;;;5010821;28;20092;-77
2022/06/12 01:50:10;;;;;;;6.15;2.22;;;12.20;99.90;;;;;;5010857;28;20046;-76
2022/06/12 01:53:08;;;;;;;8.07;3.33;;;12.20;99.90;;;;;;5011956;28;20382;-76
2022/06/12 01:55:37;;;;;;;6.25;2.25;;;12.20;99.90;;;;;;5010686;28;20060;-77
2022/06/12 01:58:14;;;;;;;4.85;2.10;;;12.20;99.90;;;;;;4994258;28;20042;-76
2022/06/12 02:00:50;;;;;;;7.53;2.63;;;12.10;99.90;;;;;;4993731;28;20091;-75
2022/06/12 02:03:30;;;;;;;6.20;2.10;;;12.10;99.90;;;;;;5010325;28;20038;-77
2022/06/12 02:06:02;;;;;;;7.72;2.90;;;12.10;99.90;;;;;;4993974;28;20081;-75
2022/06/12 02:08:33;;;;;;;6.18;2.47;;;12.10;99.90;;;;;;5010634;28;20076;-77
2022/06/12 02:14:06;;;;;;;9.60;3.03;;;12.10;99.90;;;;;;5010283;28;20409;-76
2022/06/12 02:16:35;;;;;;;6.75;2.05;;;12.10;99.90;;;;;;5010225;28;20057;-76
2022/06/12 02:19:08;;;;;;;8.90;2.60;;;12.10;99.90;;;;;;4993914;28;20077;-77
2022/06/12 02:21:53;;;;;;;7.78;2.30;;;12.00;99.90;;;;;;5009955;28;20041;-77
2022/06/12 02:24:25;;;;;;;6.53;2.10;;;12.00;99.90;;;;;;4993693;28;20045;-76
2022/06/12 02:27:05;;;;;;;4.93;2.40;;;12.00;99.90;;;;;;5010002;28;20083;-77
2022/06/12 02:29:53;;;;;;;7.55;2.05;;;12.00;99.90;;;;;;4993482;28;20046;-76
2022/06/12 02:32:26;;;;;;;6.10;2.28;;;12.00;99.90;;;;;;5011396;28;20542;-76
2022/06/12 02:34:59;;;;;;;6.35;2.30;;;12.00;99.90;;;;;;5010193;28;20468;-76
2022/06/12 02:37:32;;;;;;;8.00;3.90;;;12.00;99.90;;;;;;5013347;28;20049;-75
2022/06/12 02:40:04;;;;;;;4.22;1.80;;;11.90;99.90;;;;;;5014292;28;20056;-76
2022/06/12 02:42:38;;;;;;;13.55;2.13;;;11.90;99.90;;;;;;4998104;28;20033;-75
2022/06/12 02:45:11;;;;;;;5.55;2.15;;;11.90;99.90;;;;;;5013936;28;20042;-75
2022/06/12 02:47:40;;;;;;;5.85;1.65;;;11.90;99.90;;;;;;5013936;28;20125;-76
2022/06/12 02:50:08;;;;;;;6.60;2.25;;;11.80;99.90;;;;;;5013909;28;20370;-77
2022/06/12 02:53:02;;;;;;;6.25;1.90;;;11.90;99.90;;;;;;5014003;28;20085;-75
2022/06/12 02:55:37;;;;;;;4.63;1.70;;;11.90;99.90;;;;;;5014171;28;20034;-77
2022/06/12 02:58:18;;;;;;;8.35;2.10;;;11.80;99.90;;;;;;5013803;28;20038;-76
2022/06/12 03:00:47;;;;;;;6.90;2.38;;;11.80;99.90;;;;;;5030223;28;20393;-76
2022/06/12 03:03:31;;;;;;;7.20;1.70;;;11.80;99.90;;;;;;5013675;28;20041;-76
2022/06/12 03:05:59;;;;;;;8.13;1.90;;;11.70;99.90;;;;;;5013626;28;20050;-76
2022/06/12 03:08:30;;;;;;;7.25;2.03;;;11.70;99.90;;;;;;5020444;28;20038;-75
2022/06/12 03:11:10;;;;;;;8.47;1.63;;;11.70;99.90;;;;;;5031890;28;20052;-75
2022/06/12 03:13:38;;;;;;;7.22;1.70;;;11.70;99.90;;;;;;5025745;28;20504;-76
2022/06/12 03:16:19;;;;;;;7.10;2.28;;;11.70;99.90;;;;;;5013781;28;20081;-76
2022/06/12 03:18:54;;;;;;;7.00;1.58;;;11.70;99.90;;;;;;5013323;28;20041;-77
2022/06/12 03:21:27;;;;;;;5.97;1.70;;;11.70;99.90;;;;;;4996872;28;20099;-77
2022/06/12 03:24:22;;;;;;;6.95;2.13;;;11.70;99.90;;;;;;5013339;28;20044;-77
2022/06/12 03:27:11;;;;;;;5.45;1.92;;;11.70;99.90;;;;;;5021046;28;20050;-77
2022/06/12 03:30:08;;;;;;;7.88;2.00;;;11.70;99.90;;;;;;4996740;28;20460;-76
2022/06/12 03:32:45;;;;;;;6.15;2.30;;;11.80;99.90;;;;;;4983148;28;20069;-76
2022/06/12 03:35:29;;;;;;;3.92;1.70;;;11.80;99.90;;;;;;5029715;28;20128;-75
2022/06/12 03:37:57;;;;;;;5.95;1.65;;;11.80;99.90;;;;;;5029820;28;20529;-75
2022/06/12 03:40:32;;;;;;;7.25;1.80;;;11.80;99.90;;;;;;4996580;28;20047;-76
2022/06/12 03:43:08;;;;;;;9.07;1.92;;;11.80;99.90;;;;;;5014538;28;20161;-76
2022/06/12 03:45:53;;;;;;;6.55;1.80;;;11.90;99.90;;;;;;5013092;28;20533;-77
2022/06/12 03:48:27;;;;;;;8.43;1.90;;;11.90;99.90;;;;;;5028937;28;20045;-77
2022/06/12 03:51:14;;;;;;;7.65;1.92;;;11.90;99.90;;;;;;5012675;28;20052;-76
2022/06/12 03:54:04;;;;;;;5.57;2.13;;;12.00;99.90;;;;;;5013092;28;20084;-77
2022/06/12 03:59:33;;;;;;;8.10;2.28;;;12.00;99.90;;;;;;5013152;28;20116;-77
2022/06/12 04:02:03;;;;;;;5.53;1.55;;;12.10;99.90;;;;;;5012944;28;20077;-77
2022/06/12 04:04:31;;;;;;;5.68;1.92;;;12.10;99.90;;;;;;5012566;28;20038;-77
2022/06/12 04:06:59;;;;;;;6.38;2.17;;;12.20;99.90;;;;;;5012796;28;20041;-77
2022/06/12 04:09:29;;;;;;;9.60;2.38;;;12.20;99.90;;;;;;5012949;28;20481;-77
2022/06/12 04:12:02;;;;;;;13.98;2.53;;;12.20;99.90;;;;;;5012861;28;20393;-76
2022/06/12 04:14:38;;;;;;;4.82;1.58;;;12.30;99.90;;;;;;5012381;28;20474;-75
2022/06/12 04:17:05;;;;;;;6.82;2.25;;;12.30;99.90;;;;;;5012450;28;20489;-76
2022/06/12 04:19:58;;;;;;;6.30;1.95;;;12.30;99.90;;;;;;4995766;28;20057;-76
2022/06/12 04:22:20;;;;;;;5.40;2.10;;;12.40;99.90;;;;;;5012286;28;20053;-76
2022/06/12 04:24:58;;;;;;;6.97;1.92;;;12.50;99.90;;;;;;5012216;28;20041;-77
2022/06/12 04:27:34;;;;;;;6.00;1.95;;;12.60;99.90;;;;;;5012266;28;20070;-77
2022/06/12 04:30:04;;;;;;;7.32;2.00;;;12.50;99.90;;;;;;5012074;28;20041;-77
2022/06/12 04:32:30;;;;;;;8.65;2.05;;;12.70;99.90;;;;;;5012207;28;20070;-77
2022/06/12 04:34:56;;;;;;;9.02;1.88;;;12.70;99.90;;;;;;5012472;28;20080;-77
2022/06/12 04:37:29;;;;;;;10.65;2.60;;;12.80;99.90;;;;;;4995774;28;20049;-76
2022/06/12 04:39:57;;;;;;;9.77;2.40;;;12.80;99.90;;;;;;5012981;28;20401;-76
2022/06/12 04:42:25;;;;;;;5.00;1.90;;;12.90;99.90;;;;;;5013205;28;20125;-76
2022/06/12 04:44:51;;;;;;;7.22;2.63;;;13.00;99.90;;;;;;5012035;28;20042;-76
2022/06/12 04:47:21;;;;;;;12.43;2.50;;;13.10;99.90;;;;;;4995629;28;20045;-76
2022/06/12 04:49:49;;;;;;;7.38;2.63;;;13.30;99.90;;;;;;5011730;28;20092;-76
2022/06/12 04:52:16;;;;;;;16.92;2.80;;;13.70;99.90;;;;;;5013273;28;20493;-77
2022/06/12 04:54:44;;;;;;;10.98;2.25;;;14.00;99.90;;;;;;4995528;28;20092;-76
2022/06/12 04:57:11;;;;;;;10.20;2.60;;;14.10;99.90;;;;;;5011813;28;20048;-76
2022/06/12 04:59:37;;;;;;;12.20;3.30;;;14.20;99.90;;;;;;5010246;28;20100;-77
2022/06/12 05:02:04;;;;;;;10.10;2.38;;;14.30;99.90;;;;;;5011792;28;20042;-77
2022/06/12 05:04:30;;;;;;;7.90;2.33;;;14.50;99.90;;;;;;5011742;28;20053;-76
2022/06/12 05:06:56;;;;;;;11.20;2.88;;;14.80;99.90;;;;;;5011521;28;20061;-77
2022/06/12 05:09:26;;;;;;;9.90;2.70;;;15.10;99.90;;;;;;5012439;28;20386;-76
2022/06/12 05:11:53;;;;;;;9.00;2.33;;;15.60;99.90;;;;;;5011601;28;20046;-76
2022/06/12 05:14:18;;;;;;;13.68;2.90;;;16.10;99.90;;;;;;5012718;28;20070;-77
2022/06/12 05:16:48;;;;;;;9.32;2.17;;;16.60;99.90;;;;;;5012665;28;20481;-76
2022/06/12 05:19:17;;;;;;;9.63;2.25;;;17.00;99.90;;;;;;5027705;28;20088;-77
2022/06/12 05:21:43;;;;;;;12.68;2.50;;;17.30;99.90;;;;;;5010825;28;20045;-77
2022/06/12 05:24:10;;;;;;;10.70;2.63;;;17.70;99.90;;;;;;4994690;28;20049;-78
2022/06/12 05:26:38;;;;;;;8.68;2.60;;;18.00;99.90;;;;;;4994749;28;20042;-78
2022/06/12 05:29:06;;;;;;;8.57;2.50;;;18.20;99.90;;;;;;5011094;28;20116;-77
2022/06/12 05:31:32;;;;;;;7.18;2.20;;;18.50;99.90;;;;;;5011107;28;20390;-75
2022/06/12 05:33:58;;;;;;;12.27;2.67;;;18.70;99.90;;;;;;5027634;28;20049;-76
2022/06/12 05:36:24;;;;;;;9.23;2.28;;;18.90;99.90;;;;;;5010834;28;20041;-77
2022/06/12 05:38:51;;;;;;;12.38;2.70;;;19.10;99.90;;;;;;5011471;28;20096;-77
2022/06/12 05:41:17;;;;;;;10.45;2.33;;;19.30;99.90;;;;;;5011879;28;20045;-76
2022/06/12 05:43:43;;;;;;;5.85;2.25;;;19.40;99.90;;;;;;4994352;28;20088;-77
2022/06/12 05:46:11;;;;;;;10.15;2.05;;;19.70;99.90;;;;;;5010771;28;20140;-77
2022/06/12 05:48:39;;;;;;;11.23;2.40;;;19.90;99.90;;;;;;5011015;28;20038;-77
2022/06/12 05:51:06;;;;;;;8.13;1.95;;;20.10;99.90;;;;;;5010284;28;20070;-77
2022/06/12 05:53:36;;;;;;;10.18;3.05;;;20.30;99.90;;;;;;4994340;28;20072;-78
2022/06/12 05:56:05;;;;;;;8.52;2.40;;;20.60;99.90;;;;;;5010863;28;20107;-77
2022/06/12 05:58:31;;;;;;;8.07;2.10;;;20.50;99.90;;;;;;5010800;28;20050;-77
2022/06/12 06:00:58;;;;;;;8.80;2.40;;;20.00;99.90;;;;;;5011649;28;20056;-76
2022/06/12 06:03:24;;;;;;;15.60;3.05;;;19.60;99.90;;;;;;5010528;28;20042;-77
2022/06/12 06:05:50;;;;;;;11.40;2.30;;;19.20;99.90;;;;;;5026578;28;20050;-77
2022/06/12 06:08:17;;;;;;;8.38;2.70;;;18.90;99.90;;;;;;5010479;28;20044;-76
2022/06/12 06:10:43;;;;;;;9.15;2.97;;;19.00;99.90;;;;;;5010254;28;20362;-76
2022/06/12 06:13:10;;;;;;;10.38;2.47;;;18.80;99.90;;;;;;5010456;28;20666;-77
2022/06/12 06:15:37;;;;;;;14.93;3.08;;;18.80;99.90;;;;;;5010356;28;20117;-76
2022/06/12 06:18:04;;;;;;;13.80;2.72;;;18.60;99.90;;;;;;5010221;28;20053;-77
2022/06/12 06:20:33;;;;;;;11.65;3.00;;;18.30;99.90;;;;;;5010090;28;20520;-75
2022/06/12 06:22:59;;;;;;;11.18;3.20;;;18.20;99.90;;;;;;5010228;28;20042;-77
2022/06/12 06:25:27;;;;;;;10.98;3.00;;;18.10;99.90;;;;;;5010145;28;20459;-76
2022/06/12 06:27:53;;;;;;;16.10;3.22;;;18.30;99.90;;;;;;5010324;28;20500;-77
2022/06/12 06:30:20;;;;;;;13.90;3.67;;;18.60;99.90;;;;;;4993818;28;20435;-77
2022/06/12 06:32:46;;;;;;;17.55;3.70;;;19.00;99.90;;;;;;5010113;28;20034;-76
2022/06/12 06:35:13;;;;;;;12.65;3.13;;;19.40;99.90;;;;;;5011372;28;20049;-75
2022/06/12 06:37:39;;;;;;;15.45;3.65;;;19.60;99.90;;;;;;4993969;28;20050;-75
2022/06/12 06:40:06;;;;;;;15.60;3.75;;;19.90;99.90;;;;;;5011139;28;20041;-76
2022/06/12 06:42:32;;;;;;;12.43;3.17;;;20.30;99.90;;;;;;5010286;28;20049;-77
2022/06/12 06:47:42;;;;;;;12.40;3.22;;;20.90;99.90;;;;;;5022487;28;20064;-74
2022/06/12 06:50:10;;;;;;;9.13;2.97;;;21.20;99.90;;;;;;5018643;28;20112;-75
2022/06/12 06:52:36;;;;;;;17.83;3.20;;;21.30;99.90;;;;;;5011421;28;20041;-75
2022/06/12 06:55:02;;;;;;;12.15;3.70;;;21.40;99.90;;;;;;5015964;28;20112;-76
2022/06/12 06:57:28;;;;;;;11.90;3.40;;;21.50;99.90;;;;;;5010418;28;20481;-75
2022/06/12 06:59:54;;;;;;;12.55;3.67;;;21.60;99.90;;;;;;5026158;28;20053;-75
2022/06/12 07:02:19;;;;;;;12.85;3.50;;;21.70;99.90;;;;;;5010227;28;20073;-76
2022/06/12 07:04:45;;;;;;;15.98;3.75;;;21.70;99.90;;;;;;5009893;28;20048;-76
2022/06/12 07:07:11;;;;;;;13.80;3.60;;;21.80;99.90;;;;;;5010720;28;20604;-81
2022/06/12 07:09:39;;;;;;;15.95;3.50;;;21.90;99.90;;;;;;4993894;28;20045;-81
2022/06/12 07:12:06;;;;;;;13.98;3.90;;;21.90;99.90;;;;;;5010611;28;20042;-81
2022/06/12 07:14:32;;;;;;;10.93;3.33;;;22.10;99.90;;;;;;4994020;28;20065;-82
2022/06/12 07:16:57;;;;;;;10.60;4.20;;;22.30;99.90;;;;;;5011284;28;20053;-81
2022/06/12 07:19:25;;;;;;;13.95;3.90;;;22.50;99.90;;;;;;5013641;28;20038;-81
2022/06/12 07:21:51;;;;;;;13.27;3.38;;;22.70;99.90;;;;;;5011260;28;20091;-81
2022/06/12 07:24:16;;;;;;;12.30;3.67;;;22.90;99.90;;;;;;5013915;28;20467;-81
2022/06/12 07:26:45;;;;;;;14.82;3.63;;;23.10;99.90;;;;;;4997311;28;20561;-82
2022/06/12 07:29:12;;;;;;;13.13;3.17;;;23.40;99.90;;;;;;5015125;28;20614;-82
2022/06/12 07:31:39;;;;;;;11.57;3.22;;;23.80;99.90;;;;;;5013465;28;20427;-81
2022/06/12 07:34:05;;;;;;;15.48;3.17;;;23.90;99.90;;;;;;4997465;28;20072;-82
2022/06/12 07:36:32;;;;;;;16.40;4.03;;;24.00;99.90;;;;;;5014040;28;20046;-81
2022/06/12 07:38:57;;;;;;;12.75;2.92;;;24.20;99.90;;;;;;5013850;28;20657;-82
2022/06/12 07:41:24;;;;;;;11.50;3.10;;;24.20;99.90;;;;;;5013057;28;20037;-81
2022/06/12 07:43:50;;;;;;;14.52;3.08;;;24.50;99.90;;;;;;5015169;28;20044;-81
2022/06/12 07:46:18;;;;;;;17.83;4.00;;;24.70;99.90;;;;;;5006836;28;20459;-81
2022/06/12 07:48:45;;;;;;;18.70;3.40;;;24.80;99.90;;;;;;5032523;28;20034;-81
2022/06/12 07:51:16;;;;;;;15.07;3.95;;;24.80;99.90;;;;;;5032943;28;20091;-81
2022/06/12 07:53:42;;;;;;;12.27;3.50;;;24.70;99.90;;;;;;5015840;28;20500;-81
2022/06/12 07:56:09;;;;;;;15.15;3.22;;;24.40;99.90;;;;;;5033221;28;20046;-80
2022/06/12 07:58:36;;;;;;;14.65;3.40;;;24.00;99.90;;;;;;5033435;28;20046;-80
2022/06/12 08:01:07;;;;;;;12.85;3.42;;;24.00;99.90;;;;;;5016362;28;20051;-81
2022/06/12 08:03:33;;;;;;;7.90;2.30;;;24.20;99.90;;;;;;5015839;28;20451;-80
2022/06/12 08:05:59;;;;;;;13.63;3.22;;;24.40;99.90;;;;;;5015835;28;20065;-82
2022/06/12 08:08:26;;;;;;;17.45;5.85;;;24.30;99.90;;;;;;5031228;28;20450;-80
2022/06/12 08:10:52;;;;;;;12.20;3.22;;;24.20;99.90;;;;;;5033355;28;20033;-81
2022/06/12 08:13:19;;;;;;;13.60;5.47;;;24.20;99.90;;;;;;5032104;28;20497;-81
2022/06/12 08:15:47;;;;;;;15.82;3.38;;;23.90;99.90;;;;;;5031025;28;20631;-81
2022/06/12 08:18:14;;;;;;;14.07;2.70;;;23.70;99.90;;;;;;5026380;28;20045;-81
2022/06/12 08:20:45;;;;;;;16.95;3.22;;;23.90;99.90;;;;;;5029898;28;20075;-81
2022/06/12 08:23:27;;;;;;;12.75;3.63;;;24.20;99.90;;;;;;5030318;28;20045;-82
2022/06/12 08:26:08;;;;;;;18.65;3.78;;;24.50;99.90;;;;;;5033693;28;20505;-81
2022/06/12 08:28:38;;;;;;;11.50;3.10;;;24.80;99.90;;;;;;5023999;28;20492;-81
2022/06/12 08:31:07;;;;;;;12.43;3.20;;;25.00;99.90;;;;;;5030321;28;20046;-81
2022/06/12 08:33:35;;;;;;;10.88;3.15;;;24.90;99.90;;;;;;5030941;28;20041;-81
2022/06/12 08:36:01;;;;;;;9.02;3.10;;;24.80;99.90;;;;;;5029711;28;20068;-80
2022/06/12 08:38:26;;;;;;;10.40;3.25;;;24.80;99.90;;;;;;5032420;28;20365;-81
2022/06/12 08:40:57;;;;;;;11.70;3.22;;;24.80;99.90;;;;;;5011490;28;20104;-80
2022/06/12 08:43:31;;;;;;;10.07;3.05;;;24.80;99.90;;;;;;5032071;28;20045;-80
2022/06/12 08:46:04;;;;;;;15.15;2.92;;;24.80;99.90;;;;;;5033195;28;20045;-80
2022/06/12 08:49:00;;;;;;;13.90;3.20;;;24.70;99.90;;;;;;5031869;28;20045;-81
2022/06/12 08:51:42;;;;;;;11.75;3.17;;;24.60;99.90;;;;;;5030549;28;20049;-80
2022/06/12 08:54:17;;;;;;;14.18;3.00;;;24.70;99.90;;;;;;5031617;28;20045;-81
2022/06/12 08:56:57;;;;;;;12.45;2.60;;;25.00;99.90;;;;;;5023889;28;20504;-79
2022/06/12 08:59:38;;;;;;;11.73;3.13;;;25.10;99.90;;;;;;5030247;28;20064;-81
2022/06/12 09:02:06;;;;;;;12.98;3.30;;;25.10;99.90;;;;;;5031857;28;20034;-80
2022/06/12 09:04:34;;;;;;;12.25;3.22;;;25.20;99.90;;;;;;5032137;28;20041;-81
2022/06/12 09:07:13;;;;;;;12.18;2.90;;;25.40;99.90;;;;;;5031911;28;20045;-79
2022/06/12 09:09:59;;;;;;;12.55;3.15;;;25.50;99.90;;;;;;5032713;28;20467;-79
2022/06/12 09:12:28;;;;;;;10.63;2.78;;;25.50;98.40;;;;;;5031578;28;20045;-81
2022/06/12 09:15:13;;;;;;;12.35;2.72;;;25.60;99.10;;;;;;5032684;28;20041;-80
2022/06/12 09:18:01;;;;;;;12.40;2.58;;;25.60;99.20;;;;;;5031585;28;20042;-80
2022/06/12 09:20:36;;;;;;;7.75;2.25;;;25.80;98.60;;;;;;5031368;28;20386;-80
2022/06/12 09:23:12;;;;;;;8.07;2.42;;;25.90;97.80;;;;;;5031900;28;20048;-80
2022/06/12 09:26:06;;;;;;;9.07;2.00;;;25.90;95.40;;;;;;5032343;28;20047;-80
2022/06/12 09:28:50;;;;;;;9.07;2.13;;;25.90;95.30;;;;;;5031004;28;20046;-81
2022/06/12 09:31:34;;;;;;;8.13;2.30;;;25.80;94.60;;;;;;5029255;28;20049;-79
2022/06/12 09:34:14;;;;;;;9.73;2.05;;;25.70;92.80;;;;;;5010563;28;20068;-81
2022/06/12 09:36:39;;;;;;;17.05;2.95;;;25.40;92.60;;;;;;5029924;28;20053;-80
2022/06/12 09:39:27;;;;;;;6.88;2.17;;;25.30;94.50;;;;;;5027568;28;20041;-81
2022/06/12 09:42:17;;;;;;;14.27;2.50;;;25.60;94.70;;;;;;5025635;28;20077;-81
2022/06/12 09:44:54;;;;;;;8.63;2.50;;;25.70;91.90;;;;;;5027701;28;20041;-81
2022/06/12 09:47:44;;;;;;;7.53;1.98;;;25.20;92.10;;;;;;5032748;28;20092;-81
2022/06/12 09:50:30;;;;;;;6.88;1.90;;;24.70;91.40;;;;;;5029587;28;20044;-79
2022/06/12 09:53:50;;;;;;;7.45;1.77;;;24.40;90.30;;;;;;5030292;28;20042;-80
2022/06/12 09:56:24;;;;;;;6.38;1.60;;;24.40;90.40;;;;;;4968878;28;20043;-80
2022/06/12 09:59:01;;;;;;;6.10;1.67;;;24.70;90.10;;;;;;5014584;28;20087;-80
2022/06/12 10:01:32;;;;;;;6.40;1.75;;;24.80;90.40;;;;;;5030609;28;20492;-79
2022/06/12 10:04:05;;;;;;;5.82;1.52;;;25.00;88.60;;;;;;5030753;28;20080;-80
2022/06/12 10:06:43;;;;;;;7.03;1.70;;;25.00;87.10;;;;;;5014503;28;20103;-80
2022/06/12 10:09:21;;;;;;;5.95;1.50;;;25.00;86.50;;;;;;5030808;28;20037;-81
2022/06/12 10:11:50;;;;;;;7.57;1.67;;;25.30;83.80;;;;;;5029537;28;20045;-81
2022/06/12 10:14:18;;;;;;;2.63;1.13;;;25.30;79.20;;;;;;5031958;28;20045;-79
2022/06/12 10:16:58;;;;;;;5.82;1.60;;;25.20;77.90;;;;;;5043153;28;20144;-81
2022/06/12 10:19:34;;;;;;;7.17;1.60;;;25.00;77.90;;;;;;5014157;28;20033;-80
2022/06/12 10:22:04;;;;;;;5.38;1.58;;;25.10;77.00;;;;;;5032190;28;20033;-81
2022/06/12 10:24:29;;;;;;;7.72;1.60;;;25.10;76.50;;;;;;5015472;28;20042;-80
2022/06/12 10:27:03;;;;;;;6.85;2.20;;;25.10;78.10;;;;;;5029432;28;20099;-81
2022/06/12 10:29:44;;;;;;;5.05;1.50;;;25.50;78.70;;;;;;5013874;28;20412;-82
2022/06/12 10:32:18;;;;;;;5.90;1.52;;;25.60;79.40;;;;;;5030383;28;20053;-81
2022/06/12 10:34:43;;;;;;;6.13;1.90;;;25.40;78.30;;;;;;5030421;28;20511;-80
2022/06/12 10:37:10;;;;;;;8.68;1.92;;;25.10;79.00;;;;;;5029250;28;20077;-81
2022/06/12 10:39:36;;;;;;;4.43;1.60;;;24.80;79.50;;;;;;5013550;28;20041;-81
2022/06/12 10:42:27;;;;;;;6.50;1.73;;;24.70;79.50;;;;;;5030637;28;20045;-81
2022/06/12 10:44:56;;;;;;;5.38;1.40;;;24.70;80.00;;;;;;5029566;28;20077;-81
2022/06/12 10:47:24;;;;;;;5.75;1.60;;;24.80;78.30;;;;;;5010486;28;20129;-81
2022/06/12 10:50:15;;;;;;;6.28;1.75;;;24.80;77.30;;;;;;5016024;28;20030;-80
2022/06/12 10:52:52;;;;;;;5.38;1.35;;;24.70;71.40;;;;;;5023421;28;20048;-78
2022/06/12 10:55:35;;;;;;;7.20;1.60;;;24.30;70.90;;;;;;5017640;28;20401;-81
2022/06/12 10:58:11;;;;;;;7.10;1.45;;;24.30;72.40;;;;;;5035300;28;20045;-79
2022/06/12 11:00:42;;;;;;;5.05;1.50;;;24.30;71.90;;;;;;5041791;28;20122;-80
2022/06/12 11:03:33;;;;;;;4.30;1.30;;;24.20;71.30;;;;;;5055845;28;20045;-80
2022/06/12 11:05:58;;;;;;;6.40;1.17;;;24.10;70.30;;;;;;5055822;28;20040;-81
2022/06/12 11:08:55;;;;;;;5.05;1.58;;;23.90;70.40;;;;;;5031344;28;20128;-81
2022/06/12 11:11:55;;;;;;;6.63;1.40;;;23.90;68.70;;;;;;5017024;28;20045;-81
2022/06/12 11:14:51;;;;;;;6.43;1.08;;;24.10;70.30;;;;;;5001686;28;20049;-81
2022/06/12 11:17:58;;;;;;;3.28;0.90;;;24.20;70.00;;;;;;5034796;28;20180;-79
2022/06/12 11:20:37;;;;;;;4.32;1.65;;;24.50;62.50;;;;;;4985911;28;20042;-81
2022/06/12 11:23:10;;;;;;;6.03;1.40;;;24.30;66.10;;;;;;4970501;28;20038;-81
2022/06/12 11:26:01;;;;;;;2.42;1.25;;;24.50;65.80;;;;;;5010029;28;20088;-80
2022/06/12 11:28:34;;;;;;;5.15;1.50;;;24.50;66.80;;;;;;5034538;28;20037;-83
2022/06/12 11:31:15;;;;;;;7.25;1.88;;;24.40;64.40;;;;;;5032486;28;20116;-81
2022/06/12 11:34:20;;;;;;;2.85;0.95;;;24.50;64.70;;;;;;5029349;28;20523;-82
2022/06/12 11:37:04;;;;;;;6.82;0.90;;;24.50;63.30;;;;;;5025293;28;20058;-82
2022/06/12 11:39:51;;;;;;;4.97;0.90;;;24.40;61.90;;;;;;5026496;28;20133;-82
2022/06/12 11:42:28;;;;;;;3.25;1.20;;;24.60;63.90;;;;;;5031831;28;20037;-82
2022/06/12 11:45:20;;;;;;;1.55;0.70;;;24.80;62.10;;;;;;5033196;28;20061;-84
2022/06/12 11:47:59;;;;;;;4.97;1.08;;;25.00;60.80;;;;;;5033160;28;20037;-81
2022/06/12 11:50:49;;;;;;;4.15;1.40;;;25.00;60.40;;;;;;5032372;28;20033;-80
2022/06/12 11:53:40;;;;;;;3.90;0.98;;;24.80;59.30;;;;;;5032117;28;20380;-82
2022/06/12 11:56:30;;;;;;;2.78;1.10;;;24.70;60.80;;;;;;5031801;28;20104;-82
2022/06/12 11:59:18;;;;;;;3.70;0.98;;;24.60;63.90;;;;;;5027417;28;20034;-81
2022/06/12 12:02:04;;;;;;;4.70;1.20;;;24.60;61.40;;;;;;5027486;28;20507;-80
2022/06/12 12:04:51;;;;;;;2.92;0.90;;;24.60;61.90;;;;;;5030593;28;20408;-81
2022/06/12 12:07:48;;;;;;;3.80;1.05;;;24.70;62.20;;;;;;5047736;28;20132;-80
2022/06/12 12:10:38;;;;;;;5.43;1.52;;;24.70;60.50;;;;;;5027753;28;20077;-81
2022/06/12 12:13:18;;;;;;;5.30;1.17;;;24.70;60.10;;;;;;5027201;28;20064;-81
2022/06/12 12:15:53;;;;;;;3.67;1.08;;;24.50;60.60;;;;;;5033759;28;20044;-81
2022/06/12 12:18:40;;;;;;;4.95;1.13;;;24.30;59.80;;;;;;5008351;28;20041;-81
2022/06/12 12:21:37;;;;;;;6.18;1.00;;;24.20;58.40;;;;;;5027348;28;20037;-81
2022/06/12 12:24:10;;;;;;;3.53;1.00;;;24.20;57.70;;;;;;5000336;28;20092;-81
2022/06/12 12:26:41;;;;;;;2.60;1.13;;;24.40;59.90;;;;;;5030142;28;20044;-80
2022/06/12 12:29:16;;;;;;;2.88;1.23;;;24.70;59.50;;;;;;5008456;28;20053;-81
2022/06/12 12:31:45;;;;;;;5.20;1.27;;;24.70;60.70;;;;;;5021912;28;20056;-80
2022/06/12 12:34:12;;;;;;;3.75;1.02;;;24.70;59.70;;;;;;5027149;28;20049;-81
2022/06/12 12:42:38;;;;;;;3.10;0.90;;;24.40;60.20;;;;;;5014670;28;20085;-80
2022/06/12 12:45:22;;;;;;;3.58;0.80;;;24.50;59.40;;;;;;4996185;28;20046;-80
2022/06/12 12:48:03;;;;;;;1.95;0.77;;;24.60;59.00;;;;;;5012586;28;20449;-79
2022/06/12 12:50:41;;;;;;;3.17;1.05;;;24.70;59.40;;;;;;5012696;28;20042;-80
2022/06/12 12:53:06;;;;;;;3.13;1.05;;;24.60;60.00;;;;;;4996708;28;20128;-80
2022/06/12 12:55:38;;;;;;;3.17;1.17;;;24.70;59.30;;;;;;5013505;28;20152;-81
2022/06/12 12:58:18;;;;;;;;;;;24.70;58.10;;;;;;5013288;28;20045;-81
2022/06/12 13:00:45;;;;;;;4.53;1.20;;;24.60;54.80;;;;;;5014361;28;19963;-82
2022/06/12 13:03:23;;;;;;;2.63;1.30;;;24.50;58.80;;;;;;5013618;28;20045;-81
2022/06/12 13:05:48;;;;;;;2.22;1.00;;;24.60;59.40;;;;;;5013835;28;20042;-79
2022/06/12 13:08:27;;;;;;;4.70;1.13;;;24.70;59.10;;;;;;5016436;28;20048;-79
2022/06/12 13:11:07;;;;;;;3.35;0.95;;;24.70;56.30;;;;;;5013354;28;20501;-79
2022/06/12 13:13:33;;;;;;;4.72;1.13;;;24.50;55.10;;;;;;5014145;28;20136;-80
2022/06/12 13:16:14;;;;;;;4.07;1.25;;;24.40;57.00;;;;;;5013190;28;20190;-80
2022/06/12 13:18:49;;;;;;;5.57;1.23;;;24.30;57.30;;;;;;4996158;28;20038;-81
2022/06/12 13:21:45;;;;;;;4.35;1.13;;;24.30;57.60;;;;;;4995814;28;20487;-79
2022/06/12 13:24:25;;;;;;;5.32;1.60;;;24.30;57.30;;;;;;5012115;28;20121;-79
2022/06/12 13:26:50;;;;;;;3.92;1.50;;;24.20;57.90;;;;;;5014177;28;20041;-79
2022/06/12 13:29:19;;;;;;;4.53;1.10;;;24.10;58.70;;;;;;5014854;28;20042;-78
2022/06/12 13:32:05;;;;;;;3.10;1.13;;;24.10;58.40;;;;;;4994948;28;20038;-77
2022/06/12 13:34:31;;;;;;;4.38;1.30;;;24.00;57.20;;;;;;5011327;28;20049;-78
2022/06/12 13:36:58;;;;;;;4.07;1.30;;;23.90;58.40;;;;;;5012341;28;20041;-76